sensor_id;sensor_type;location;lat;lon;timestamp;temperature;humidity
16907;DHT22;8570;52.380;4.654;2022-10-23T00:02:57;13.10;99.90
16907;DHT22;8570;52.380;4.654;2022-10-23T00:08:01;13.10;99.90
16907;DHT22;8570;52.380;4.654;2022-10-23T00:13:05;13.10;99.90
16907;DHT22;8570;52.380;4.654;2022-10-23T00:18:07;13.10;99.90
16907;DHT22;8570;52.380;4.654;2022-10-23T00:23:10;13.00;99.90
16907;DHT22;8570;52.380;4.654;2022-10-23T00:28:12;13.00;99.90
16907;DHT22;8570;52.380;4.654;2022-10-23T00:33:14;13.00;99.90
16907;DHT22;8570;52.380;4.654;2022-10-23T00:38:17;13.00;99.90
16907;DHT22;8570;52.380;4.654;2022-10-23T00:43:21;13.00;99.90
16907;DHT22;8570;52.380;4.654;2022-10-23T00:48:23;13.00;99.90
16907;DHT22;8570;52.380;4.654;2022-10-23T00:53:27;13.00;99.90
16907;DHT22;8570;52.380;4.654;2022-10-23T00:58:29;13.00;99.90
16907;DHT22;8570;52.380;4.654;2022-10-23T01:03:31;13.00;99.90
16907;DHT22;8570;52.380;4.654;2022-10-23T01:08:49;13.00;99.90
16907;DHT22;8570;52.380;4.654;2022-10-23T01:14:00;13.00;99.90
16907;DHT22;8570;52.380;4.654;2022-10-23T01:19:10;13.00;99.90
16907;DHT22;8570;52.380;4.654;2022-10-23T01:24:26;13.00;99.90
16907;DHT22;8570;52.380;4.654;2022-10-23T01:29:37;13.00;99.90
16907;DHT22;8570;52.380;4.654;2022-10-23T01:34:45;12.90;99.90
16907;DHT22;8570;52.380;4.654;2022-10-23T01:39:51;12.90;99.90
16907;DHT22;8570;52.380;4.654;2022-10-23T01:45:00;12.90;99.90
16907;DHT22;8570;52.380;4.654;2022-10-23T01:50:04;12.90;99.90
16907;DHT22;8570;52.380;4.654;2022-10-23T01:55:10;12.90;99.90
16907;DHT22;8570;52.380;4.654;2022-10-23T02:00:18;12.90;99.90
16907;DHT22;8570;52.380;4.654;2022-10-23T02:05:23;12.90;99.90
16907;DHT22;8570;52.380;4.654;2022-10-23T02:10:31;13.00;99.90
16907;DHT22;8570;52.380;4.654;2022-10-23T02:15:37;13.00;99.90
16907;DHT22;8570;52.380;4.654;2022-10-23T02:20:47;13.00;99.90
16907;DHT22;8570;52.380;4.654;2022-10-23T02:25:54;13.00;99.90
16907;DHT22;8570;52.380;4.654;2022-10-23T02:30:59;13.10;99.90
16907;DHT22;8570;52.380;4.654;2022-10-23T02:36:02;13.10;99.90
16907;DHT22;8570;52.380;4.654;2022-10-23T02:41:12;13.00;99.90
16907;DHT22;8570;52.380;4.654;2022-10-23T02:46:24;13.00;99.90
16907;DHT22;8570;52.380;4.654;2022-10-23T02:51:32;13.00;99.90
16907;DHT22;8570;52.380;4.654;2022-10-23T02:56:39;13.00;99.90
16907;DHT22;8570;52.380;4.654;2022-10-23T03:01:48;13.00;99.90
16907;DHT22;8570;52.380;4.654;2022-10-23T03:06:51;12.90;99.90
16907;DHT22;8570;52.380;4.654;2022-10-23T03:11:53;12.90;99.90
16907;DHT22;8570;52.380;4.654;2022-10-23T03:16:56;12.90;99.90
16907;DHT22;8570;52.380;4.654;2022-10-23T03:21:58;12.90;99.90
16907;DHT22;8570;52.380;4.654;2022-10-23T03:27:00;12.90;99.90
16907;DHT22;8570;52.380;4.654;2022-10-23T03:32:04;12.90;99.90
16907;DHT22;8570;52.380;4.654;2022-10-23T03:37:06;12.80;99.90
16907;DHT22;8570;52.380;4.654;2022-10-23T03:42:07;12.80;99.90
16907;DHT22;8570;52.380;4.654;2022-10-23T03:47:11;12.80;99.90
16907;DHT22;8570;52.380;4.654;2022-10-23T03:52:13;12.80;99.90
16907;DHT22;8570;52.380;4.654;2022-10-23T03:57:14;12.80;99.90
16907;DHT22;8570;52.380;4.654;2022-10-23T04:02:18;12.70;99.90
16907;DHT22;8570;52.380;4.654;2022-10-23T04:07:20;12.70;99.90
16907;DHT22;8570;52.380;4.654;2022-10-23T04:12:22;12.70;99.90
16907;DHT22;8570;52.380;4.654;2022-10-23T04:17:25;12.70;99.90
16907;DHT22;8570;52.380;4.654;2022-10-23T04:22:29;12.70;99.90
16907;DHT22;8570;52.380;4.654;2022-10-23T04:27:31;12.60;99.90
16907;DHT22;8570;52.380;4.654;2022-10-23T04:32:35;12.60;99.90
16907;DHT22;8570;52.380;4.654;2022-10-23T04:37:37;12.60;99.90
16907;DHT22;8570;52.380;4.654;2022-10-23T04:42:39;12.60;99.90
16907;DHT22;8570;52.380;4.654;2022-10-23T04:47:42;12.60;99.90
16907;DHT22;8570;52.380;4.654;2022-10-23T04:52:44;12.60;99.90
16907;DHT22;8570;52.380;4.654;2022-10-23T04:57:47;12.60;99.90
16907;DHT22;8570;52.380;4.654;2022-10-23T05:02:50;12.60;99.90
16907;DHT22;8570;52.380;4.654;2022-10-23T05:07:52;12.60;99.90
16907;DHT22;8570;52.380;4.654;2022-10-23T05:12:54;12.90;99.90
16907;DHT22;8570;52.380;4.654;2022-10-23T05:18:01;13.50;99.90
16907;DHT22;8570;52.380;4.654;2022-10-23T05:23:08;13.50;99.90
16907;DHT22;8570;52.380;4.654;2022-10-23T05:28:11;13.30;99.90
16907;DHT22;8570;52.380;4.654;2022-10-23T05:33:15;13.10;99.90
16907;DHT22;8570;52.380;4.654;2022-10-23T05:38:17;13.00;99.90
16907;DHT22;8570;52.380;4.654;2022-10-23T05:43:19;12.90;99.90
16907;DHT22;8570;52.380;4.654;2022-10-23T05:48:23;12.90;99.90
16907;DHT22;8570;52.380;4.654;2022-10-23T05:53:24;12.80;99.90
16907;DHT22;8570;52.380;4.654;2022-10-23T05:58:26;12.80;99.90
16907;DHT22;8570;52.380;4.654;2022-10-23T06:03:30;12.80;99.90
16907;DHT22;8570;52.380;4.654;2022-10-23T06:08:32;12.80;99.90
16907;DHT22;8570;52.380;4.654;2022-10-23T06:13:34;12.70;99.90
16907;DHT22;8570;52.380;4.654;2022-10-23T06:18:38;12.80;99.90
16907;DHT22;8570;52.380;4.654;2022-10-23T06:23:41;12.80;99.90
16907;DHT22;8570;52.380;4.654;2022-10-23T06:28:44;12.80;99.90
16907;DHT22;8570;52.380;4.654;2022-10-23T06:33:47;12.80;99.90
16907;DHT22;8570;52.380;4.654;2022-10-23T06:38:49;12.80;99.90
16907;DHT22;8570;52.380;4.654;2022-10-23T06:43:51;12.90;99.90
16907;DHT22;8570;52.380;4.654;2022-10-23T06:48:55;12.90;99.90
16907;DHT22;8570;52.380;4.654;2022-10-23T06:53:56;12.90;99.90
16907;DHT22;8570;52.380;4.654;2022-10-23T06:58:58;12.90;99.90
16907;DHT22;8570;52.380;4.654;2022-10-23T07:04:02;12.90;99.90
16907;DHT22;8570;52.380;4.654;2022-10-23T07:09:04;13.00;99.90
16907;DHT22;8570;52.380;4.654;2022-10-23T07:14:05;13.00;99.90
16907;DHT22;8570;52.380;4.654;2022-10-23T07:19:09;13.10;99.90
16907;DHT22;8570;52.380;4.654;2022-10-23T07:24:10;13.40;99.90
16907;DHT22;8570;52.380;4.654;2022-10-23T07:29:12;13.60;99.90
16907;DHT22;8570;52.380;4.654;2022-10-23T07:34:16;13.50;99.90
16907;DHT22;8570;52.380;4.654;2022-10-23T07:39:18;13.50;99.90
16907;DHT22;8570;52.380;4.654;2022-10-23T07:44:19;13.40;99.90
16907;DHT22;8570;52.380;4.654;2022-10-23T07:49:23;13.50;99.90
16907;DHT22;8570;52.380;4.654;2022-10-23T07:54:25;13.40;99.90
16907;DHT22;8570;52.380;4.654;2022-10-23T07:59:26;13.50;99.90
16907;DHT22;8570;52.380;4.654;2022-10-23T08:04:30;13.50;99.90
16907;DHT22;8570;52.380;4.654;2022-10-23T08:09:32;13.50;99.90
16907;DHT22;8570;52.380;4.654;2022-10-23T08:14:34;13.60;99.90
16907;DHT22;8570;52.380;4.654;2022-10-23T08:19:38;13.60;99.90
16907;DHT22;8570;52.380;4.654;2022-10-23T08:24:39;13.70;99.90
16907;DHT22;8570;52.380;4.654;2022-10-23T08:29:41;13.70;99.90
16907;DHT22;8570;52.380;4.654;2022-10-23T08:34:45;13.80;99.90
16907;DHT22;8570;52.380;4.654;2022-10-23T08:39:47;13.80;99.90
16907;DHT22;8570;52.380;4.654;2022-10-23T08:44:58;13.90;99.90
16907;DHT22;8570;52.380;4.654;2022-10-23T08:50:09;14.00;99.90
16907;DHT22;8570;52.380;4.654;2022-10-23T08:55:20;14.00;99.90
16907;DHT22;8570;52.380;4.654;2022-10-23T09:00:24;14.10;99.90
16907;DHT22;8570;52.380;4.654;2022-10-23T09:05:31;14.10;99.90
16907;DHT22;8570;52.380;4.654;2022-10-23T09:10:57;14.20;99.90
16907;DHT22;8570;52.380;4.654;2022-10-23T09:16:05;14.20;99.90
16907;DHT22;8570;52.380;4.654;2022-10-23T09:21:13;14.30;99.90
16907;DHT22;8570;52.380;4.654;2022-10-23T09:26:16;14.40;99.90
16907;DHT22;8570;52.380;4.654;2022-10-23T09:31:18;14.40;99.90
16907;DHT22;8570;52.380;4.654;2022-10-23T09:36:23;14.50;99.90
16907;DHT22;8570;52.380;4.654;2022-10-23T09:41:29;14.50;99.90
16907;DHT22;8570;52.380;4.654;2022-10-23T09:46:42;14.60;99.90
16907;DHT22;8570;52.380;4.654;2022-10-23T09:52:00;14.70;99.90
16907;DHT22;8570;52.380;4.654;2022-10-23T09:57:12;14.70;99.90
16907;DHT22;8570;52.380;4.654;2022-10-23T10:02:20;14.80;99.90
16907;DHT22;8570;52.380;4.654;2022-10-23T10:07:27;14.90;99.90
16907;DHT22;8570;52.380;4.654;2022-10-23T10:12:44;14.90;99.90
16907;DHT22;8570;52.380;4.654;2022-10-23T10:18:00;15.00;99.90
16907;DHT22;8570;52.380;4.654;2022-10-23T10:23:09;15.00;99.90
16907;DHT22;8570;52.380;4.654;2022-10-23T10:28:30;15.10;99.90
16907;DHT22;8570;52.380;4.654;2022-10-23T10:33:36;15.10;99.90
16907;DHT22;8570;52.380;4.654;2022-10-23T10:38:46;15.20;99.90
16907;DHT22;8570;52.380;4.654;2022-10-23T10:43:58;15.20;99.90
16907;DHT22;8570;52.380;4.654;2022-10-23T10:49:06;15.20;99.90
16907;DHT22;8570;52.380;4.654;2022-10-23T10:54:24;15.20;99.90
16907;DHT22;8570;52.380;4.654;2022-10-23T10:59:32;15.20;99.90
16907;DHT22;8570;52.380;4.654;2022-10-23T11:04:44;15.30;99.90
16907;DHT22;8570;52.380;4.654;2022-10-23T11:09:51;15.30;99.90
16907;DHT22;8570;52.380;4.654;2022-10-23T11:14:54;15.40;99.90
16907;DHT22;8570;52.380;4.654;2022-10-23T11:20:01;15.50;99.90
16907;DHT22;8570;52.380;4.654;2022-10-23T11:31:07;15.60;99.90
16907;DHT22;8570;52.380;4.654;2022-10-23T11:36:12;15.70;99.90
16907;DHT22;8570;52.380;4.654;2022-10-23T11:41:20;15.80;99.90
16907;DHT22;8570;52.380;4.654;2022-10-23T11:46:30;15.90;99.90
16907;DHT22;8570;52.380;4.654;2022-10-23T11:51:33;15.90;99.90
16907;DHT22;8570;52.380;4.654;2022-10-23T11:56:37;15.90;99.90
16907;DHT22;8570;52.380;4.654;2022-10-23T12:01:41;16.00;99.90
16907;DHT22;8570;52.380;4.654;2022-10-23T12:06:46;16.00;99.90
16907;DHT22;8570;52.380;4.654;2022-10-23T12:12:02;16.10;99.90
16907;DHT22;8570;52.380;4.654;2022-10-23T12:17:24;16.10;99.90
16907;DHT22;8570;52.380;4.654;2022-10-23T12:22:35;16.20;99.90
16907;DHT22;8570;52.380;4.654;2022-10-23T12:27:45;16.20;99.90
16907;DHT22;8570;52.380;4.654;2022-10-23T12:33:11;16.20;99.90
16907;DHT22;8570;52.380;4.654;2022-10-23T12:38:17;16.30;99.90
16907;DHT22;8570;52.380;4.654;2022-10-23T12:43:36;16.30;99.90
16907;DHT22;8570;52.380;4.654;2022-10-23T12:48:46;16.40;99.90
16907;DHT22;8570;52.380;4.654;2022-10-23T12:53:49;16.50;99.90
16907;DHT22;8570;52.380;4.654;2022-10-23T12:58:54;16.50;99.90
16907;DHT22;8570;52.380;4.654;2022-10-23T13:03:58;16.60;99.90
16907;DHT22;8570;52.380;4.654;2022-10-23T13:09:03;16.70;99.90
16907;DHT22;8570;52.380;4.654;2022-10-23T13:19:23;16.90;99.90
16907;DHT22;8570;52.380;4.654;2022-10-23T13:24:27;16.90;99.90
16907;DHT22;8570;52.380;4.654;2022-10-23T13:29:33;17.10;99.90
16907;DHT22;8570;52.380;4.654;2022-10-23T13:34:35;17.20;99.90
16907;DHT22;8570;52.380;4.654;2022-10-23T13:44:41;17.40;99.90
16907;DHT22;8570;52.380;4.654;2022-10-23T13:49:43;17.40;99.90
16907;DHT22;8570;52.380;4.654;2022-10-23T13:54:45;17.50;99.90
16907;DHT22;8570;52.380;4.654;2022-10-23T13:59:48;17.50;99.90
16907;DHT22;8570;52.380;4.654;2022-10-23T14:04:50;17.60;99.90
16907;DHT22;8570;52.380;4.654;2022-10-23T14:09:52;17.60;99.90
16907;DHT22;8570;52.380;4.654;2022-10-23T14:14:55;17.70;99.90
16907;DHT22;8570;52.380;4.654;2022-10-23T14:19:57;17.80;99.90
16907;DHT22;8570;52.380;4.654;2022-10-23T14:24:59;17.80;99.90
16907;DHT22;8570;52.380;4.654;2022-10-23T14:30:03;17.80;99.90
16907;DHT22;8570;52.380;4.654;2022-10-23T14:35:05;17.70;99.90
16907;DHT22;8570;52.380;4.654;2022-10-23T14:40:08;17.70;99.90
16907;DHT22;8570;52.380;4.654;2022-10-23T14:45:12;17.70;99.90
16907;DHT22;8570;52.380;4.654;2022-10-23T14:50:15;17.70;99.90
16907;DHT22;8570;52.380;4.654;2022-10-23T14:55:17;17.70;99.90
16907;DHT22;8570;52.380;4.654;2022-10-23T15:00:21;17.70;99.90
16907;DHT22;8570;52.380;4.654;2022-10-23T15:05:23;17.80;99.90
16907;DHT22;8570;52.380;4.654;2022-10-23T15:10:25;17.80;99.90
16907;DHT22;8570;52.380;4.654;2022-10-23T15:15:31;17.70;99.90
16907;DHT22;8570;52.380;4.654;2022-10-23T15:20:35;17.70;99.90
16907;DHT22;8570;52.380;4.654;2022-10-23T15:25:36;17.70;99.90
16907;DHT22;8570;52.380;4.654;2022-10-23T15:30:41;17.60;99.90
16907;DHT22;8570;52.380;4.654;2022-10-23T15:35:45;17.60;99.90
16907;DHT22;8570;52.380;4.654;2022-10-23T15:40:47;17.60;99.90
16907;DHT22;8570;52.380;4.654;2022-10-23T15:45:50;17.60;99.90
16907;DHT22;8570;52.380;4.654;2022-10-23T15:50:52;17.50;99.90
16907;DHT22;8570;52.380;4.654;2022-10-23T15:55:55;17.50;99.90
16907;DHT22;8570;52.380;4.654;2022-10-23T16:01:02;17.50;99.90
16907;DHT22;8570;52.380;4.654;2022-10-23T16:06:07;17.50;99.90
16907;DHT22;8570;52.380;4.654;2022-10-23T16:11:14;17.40;99.90
16907;DHT22;8570;52.380;4.654;2022-10-23T16:16:18;17.40;99.90
16907;DHT22;8570;52.380;4.654;2022-10-23T16:21:22;17.40;99.90
16907;DHT22;8570;52.380;4.654;2022-10-23T16:26:25;17.40;99.90
16907;DHT22;8570;52.380;4.654;2022-10-23T16:31:29;17.40;99.90
16907;DHT22;8570;52.380;4.654;2022-10-23T16:36:31;17.40;99.90
16907;DHT22;8570;52.380;4.654;2022-10-23T16:41:33;17.30;99.90
16907;DHT22;8570;52.380;4.654;2022-10-23T16:46:36;17.30;99.90
16907;DHT22;8570;52.380;4.654;2022-10-23T16:51:39;17.30;99.90
16907;DHT22;8570;52.380;4.654;2022-10-23T16:56:40;17.30;99.90
16907;DHT22;8570;52.380;4.654;2022-10-23T17:01:44;17.20;99.90
16907;DHT22;8570;52.380;4.654;2022-10-23T17:06:46;17.20;99.90
16907;DHT22;8570;52.380;4.654;2022-10-23T17:11:48;17.20;99.90
16907;DHT22;8570;52.380;4.654;2022-10-23T17:16:52;17.10;99.90
16907;DHT22;8570;52.380;4.654;2022-10-23T17:21:54;17.10;99.90
16907;DHT22;8570;52.380;4.654;2022-10-23T17:26:56;17.10;99.90
16907;DHT22;8570;52.380;4.654;2022-10-23T17:31:59;17.00;99.90
16907;DHT22;8570;52.380;4.654;2022-10-23T17:37:01;17.00;99.90
16907;DHT22;8570;52.380;4.654;2022-10-23T17:42:03;17.00;99.90
16907;DHT22;8570;52.380;4.654;2022-10-23T17:47:06;17.00;99.90
16907;DHT22;8570;52.380;4.654;2022-10-23T17:52:08;17.00;99.90
16907;DHT22;8570;52.380;4.654;2022-10-23T17:57:13;17.00;99.90
16907;DHT22;8570;52.380;4.654;2022-10-23T18:02:16;17.00;99.90
16907;DHT22;8570;52.380;4.654;2022-10-23T18:07:18;17.00;99.90
16907;DHT22;8570;52.380;4.654;2022-10-23T18:12:20;17.00;99.90
16907;DHT22;8570;52.380;4.654;2022-10-23T18:17:24;17.00;99.90
16907;DHT22;8570;52.380;4.654;2022-10-23T18:22:26;17.00;99.90
16907;DHT22;8570;52.380;4.654;2022-10-23T18:27:28;17.10;99.90
16907;DHT22;8570;52.380;4.654;2022-10-23T18:32:32;17.10;99.90
16907;DHT22;8570;52.380;4.654;2022-10-23T18:37:33;17.10;99.90
16907;DHT22;8570;52.380;4.654;2022-10-23T18:42:35;17.10;99.90
16907;DHT22;8570;52.380;4.654;2022-10-23T18:47:39;17.20;99.90
16907;DHT22;8570;52.380;4.654;2022-10-23T18:52:41;17.20;99.90
16907;DHT22;8570;52.380;4.654;2022-10-23T18:57:43;17.10;99.90
16907;DHT22;8570;52.380;4.654;2022-10-23T19:02:46;17.40;99.90
16907;DHT22;8570;52.380;4.654;2022-10-23T19:07:49;17.40;99.90
16907;DHT22;8570;52.380;4.654;2022-10-23T19:12:51;17.30;99.90
16907;DHT22;8570;52.380;4.654;2022-10-23T19:17:54;17.10;99.90
16907;DHT22;8570;52.380;4.654;2022-10-23T19:22:57;17.00;99.90
16907;DHT22;8570;52.380;4.654;2022-10-23T19:28:01;16.80;99.90
16907;DHT22;8570;52.380;4.654;2022-10-23T19:33:05;16.70;99.90
16907;DHT22;8570;52.380;4.654;2022-10-23T19:38:07;16.70;99.90
16907;DHT22;8570;52.380;4.654;2022-10-23T19:43:08;16.60;99.90
16907;DHT22;8570;52.380;4.654;2022-10-23T19:48:12;16.60;99.90
16907;DHT22;8570;52.380;4.654;2022-10-23T19:53:13;16.50;99.90
16907;DHT22;8570;52.380;4.654;2022-10-23T19:58:16;16.50;99.90
16907;DHT22;8570;52.380;4.654;2022-10-23T20:03:19;16.40;99.90
16907;DHT22;8570;52.380;4.654;2022-10-23T20:08:21;16.40;99.90
16907;DHT22;8570;52.380;4.654;2022-10-23T20:13:23;16.30;99.90
16907;DHT22;8570;52.380;4.654;2022-10-23T20:18:26;16.20;99.90
16907;DHT22;8570;52.380;4.654;2022-10-23T20:23:28;16.00;99.90
16907;DHT22;8570;52.380;4.654;2022-10-23T20:28:30;16.00;99.90
16907;DHT22;8570;52.380;4.654;2022-10-23T20:33:33;15.90;99.90
16907;DHT22;8570;52.380;4.654;2022-10-23T20:38:35;15.80;99.90
16907;DHT22;8570;52.380;4.654;2022-10-23T20:43:37;15.80;99.90
16907;DHT22;8570;52.380;4.654;2022-10-23T20:48:42;15.70;99.90
16907;DHT22;8570;52.380;4.654;2022-10-23T20:53:44;15.70;99.90
16907;DHT22;8570;52.380;4.654;2022-10-23T20:58:47;15.60;99.90
16907;DHT22;8570;52.380;4.654;2022-10-23T21:03:51;15.50;99.90
16907;DHT22;8570;52.380;4.654;2022-10-23T21:08:53;15.40;99.90
16907;DHT22;8570;52.380;4.654;2022-10-23T21:13:55;15.40;99.90
16907;DHT22;8570;52.380;4.654;2022-10-23T21:19:02;15.30;99.90
16907;DHT22;8570;52.380;4.654;2022-10-23T21:24:06;15.20;99.90
16907;DHT22;8570;52.380;4.654;2022-10-23T21:29:08;15.10;99.90
16907;DHT22;8570;52.380;4.654;2022-10-23T21:34:11;15.00;99.90
16907;DHT22;8570;52.380;4.654;2022-10-23T21:39:13;15.00;99.90
16907;DHT22;8570;52.380;4.654;2022-10-23T21:44:15;15.00;99.90
16907;DHT22;8570;52.380;4.654;2022-10-23T21:49:18;14.90;99.90
16907;DHT22;8570;52.380;4.654;2022-10-23T21:54:20;14.90;99.90
16907;DHT22;8570;52.380;4.654;2022-10-23T21:59:24;14.90;99.90
16907;DHT22;8570;52.380;4.654;2022-10-23T22:04:27;14.90;99.90
16907;DHT22;8570;52.380;4.654;2022-10-23T22:09:30;14.90;99.90
16907;DHT22;8570;52.380;4.654;2022-10-23T22:14:39;14.90;99.90
16907;DHT22;8570;52.380;4.654;2022-10-23T22:19:57;14.90;99.90
16907;DHT22;8570;52.380;4.654;2022-10-23T22:24:59;14.90;99.90
16907;DHT22;8570;52.380;4.654;2022-10-23T22:30:04;14.90;99.90
16907;DHT22;8570;52.380;4.654;2022-10-23T22:35:16;14.90;99.90
16907;DHT22;8570;52.380;4.654;2022-10-23T22:40:18;14.90;99.90
16907;DHT22;8570;52.380;4.654;2022-10-23T22:45:25;14.90;99.90
16907;DHT22;8570;52.380;4.654;2022-10-23T22:50:28;14.90;99.90
16907;DHT22;8570;52.380;4.654;2022-10-23T22:55:30;14.90;99.90
16907;DHT22;8570;52.380;4.654;2022-10-23T23:00:32;14.90;99.90
16907;DHT22;8570;52.380;4.654;2022-10-23T23:05:40;14.90;99.90
16907;DHT22;8570;52.380;4.654;2022-10-23T23:10:42;14.90;99.90
16907;DHT22;8570;52.380;4.654;2022-10-23T23:15:44;14.90;99.90
16907;DHT22;8570;52.380;4.654;2022-10-23T23:20:48;14.90;99.90
16907;DHT22;8570;52.380;4.654;2022-10-23T23:25:50;14.90;99.90
16907;DHT22;8570;52.380;4.654;2022-10-23T23:31:02;14.90;99.90
16907;DHT22;8570;52.380;4.654;2022-10-23T23:36:07;14.90;99.90
16907;DHT22;8570;52.380;4.654;2022-10-23T23:41:11;14.90;99.90
16907;DHT22;8570;52.380;4.654;2022-10-23T23:46:13;14.80;99.90
16907;DHT22;8570;52.380;4.654;2022-10-23T23:51:19;14.80;99.90
16907;DHT22;8570;52.380;4.654;2022-10-23T23:56:21;14.80;99.90
